Terminal Aerodrome Forecast
Issued by NWS

Home | Current Version | Previous Version | Text Only | Print | Product List | Glossary On
Versions: 1 2 3 4 5 6 7 8 9 10 11 12 13
000
FTUS44 KOUN 181120
TAFCSM
TAF
KCSM 181120Z 1812/1912 08006KT 6SM BR BKN030 BKN050
      TEMPO 1813/1816 SCT030 BKN050
     FM181600 17013KT P6SM SCT035
     FM182000 17014G21KT P6SM SKC
     FM190100 17011KT P6SM FEW250=

USA.gov is the U.S. government's official web portal to all federal, state and local government web resources and services.